sensor_id;sensor_type;location;lat;lon;timestamp;P1;durP1;ratioP1;P2;durP2;ratioP2
81201;SDS011;71068;47.662;-2.750;2023-12-07T00:10:49;10.27;;;2.33;;
81201;SDS011;71068;47.662;-2.750;2023-12-07T00:17:03;1.95;;;1.55;;
81201;SDS011;71068;47.662;-2.750;2023-12-07T00:25:32;4.47;;;2.30;;
81201;SDS011;71068;47.662;-2.750;2023-12-07T00:30:56;2.40;;;1.40;;
81201;SDS011;71068;47.662;-2.750;2023-12-07T00:33:23;6.20;;;2.22;;
81201;SDS011;71068;47.662;-2.750;2023-12-07T00:45:01;2.72;;;1.50;;
81201;SDS011;71068;47.662;-2.750;2023-12-07T00:51:04;9.98;;;2.25;;
81201;SDS011;71068;47.662;-2.750;2023-12-07T00:53:48;1.42;;;1.17;;
81201;SDS011;71068;47.662;-2.750;2023-12-07T00:56:16;5.50;;;2.15;;
81201;SDS011;71068;47.662;-2.750;2023-12-07T00:59:05;3.85;;;1.88;;
81201;SDS011;71068;47.662;-2.750;2023-12-07T01:01:40;7.57;;;2.40;;
81201;SDS011;71068;47.662;-2.750;2023-12-07T01:04:16;9.50;;;3.60;;
81201;SDS011;71068;47.662;-2.750;2023-12-07T01:09:25;34.58;;;3.53;;
81201;SDS011;71068;47.662;-2.750;2023-12-07T01:12:07;8.23;;;2.10;;
81201;SDS011;71068;47.662;-2.750;2023-12-07T01:14:48;5.40;;;2.08;;
81201;SDS011;71068;47.662;-2.750;2023-12-07T01:17:39;9.57;;;1.48;;
81201;SDS011;71068;47.662;-2.750;2023-12-07T01:20:16;2.45;;;2.15;;
81201;SDS011;71068;47.662;-2.750;2023-12-07T01:23:35;16.88;;;2.97;;
81201;SDS011;71068;47.662;-2.750;2023-12-07T01:29:10;10.35;;;2.22;;
81201;SDS011;71068;47.662;-2.750;2023-12-07T01:31:45;12.82;;;1.83;;
81201;SDS011;71068;47.662;-2.750;2023-12-07T01:34:17;7.25;;;2.28;;
81201;SDS011;71068;47.662;-2.750;2023-12-07T01:37:00;2.63;;;1.65;;
81201;SDS011;71068;47.662;-2.750;2023-12-07T01:39:58;5.53;;;2.45;;
81201;SDS011;71068;47.662;-2.750;2023-12-07T01:49:23;5.63;;;2.72;;
81201;SDS011;71068;47.662;-2.750;2023-12-07T01:51:57;15.10;;;3.08;;
81201;SDS011;71068;47.662;-2.750;2023-12-07T01:54:40;4.47;;;2.55;;
81201;SDS011;71068;47.662;-2.750;2023-12-07T01:57:06;5.07;;;2.35;;
81201;SDS011;71068;47.662;-2.750;2023-12-07T01:59:46;2.58;;;2.25;;
81201;SDS011;71068;47.662;-2.750;2023-12-07T02:02:31;8.90;;;2.47;;
81201;SDS011;71068;47.662;-2.750;2023-12-07T02:05:10;10.38;;;2.47;;
81201;SDS011;71068;47.662;-2.750;2023-12-07T02:07:40;3.58;;;2.85;;
81201;SDS011;71068;47.662;-2.750;2023-12-07T02:10:13;10.23;;;2.30;;
81201;SDS011;71068;47.662;-2.750;2023-12-07T02:12:40;13.35;;;3.55;;
81201;SDS011;71068;47.662;-2.750;2023-12-07T02:15:06;10.55;;;2.70;;
81201;SDS011;71068;47.662;-2.750;2023-12-07T02:17:35;20.08;;;2.97;;
81201;SDS011;71068;47.662;-2.750;2023-12-07T02:20:31;7.03;;;2.83;;
81201;SDS011;71068;47.662;-2.750;2023-12-07T02:23:20;8.93;;;3.15;;
81201;SDS011;71068;47.662;-2.750;2023-12-07T02:28:50;4.68;;;2.55;;
81201;SDS011;71068;47.662;-2.750;2023-12-07T02:31:27;5.70;;;2.78;;
81201;SDS011;71068;47.662;-2.750;2023-12-07T02:34:12;5.70;;;3.80;;
81201;SDS011;71068;47.662;-2.750;2023-12-07T02:36:42;3.95;;;1.67;;
81201;SDS011;71068;47.662;-2.750;2023-12-07T02:49:58;6.22;;;2.58;;
81201;SDS011;71068;47.662;-2.750;2023-12-07T02:52:29;9.15;;;3.25;;
81201;SDS011;71068;47.662;-2.750;2023-12-07T02:54:58;14.23;;;3.47;;
81201;SDS011;71068;47.662;-2.750;2023-12-07T03:00:19;5.63;;;2.88;;
81201;SDS011;71068;47.662;-2.750;2023-12-07T03:02:47;7.95;;;1.85;;
81201;SDS011;71068;47.662;-2.750;2023-12-07T03:08:55;5.65;;;2.60;;
81201;SDS011;71068;47.662;-2.750;2023-12-07T03:14:07;5.90;;;2.63;;
81201;SDS011;71068;47.662;-2.750;2023-12-07T03:16:34;5.65;;;2.83;;
81201;SDS011;71068;47.662;-2.750;2023-12-07T03:19:04;5.63;;;2.38;;
81201;SDS011;71068;47.662;-2.750;2023-12-07T03:21:40;5.30;;;2.20;;
81201;SDS011;71068;47.662;-2.750;2023-12-07T03:24:10;6.43;;;2.65;;
81201;SDS011;71068;47.662;-2.750;2023-12-07T03:26:37;7.20;;;2.20;;
81201;SDS011;71068;47.662;-2.750;2023-12-07T03:29:06;7.38;;;2.45;;
81201;SDS011;71068;47.662;-2.750;2023-12-07T03:31:33;15.40;;;2.65;;
81201;SDS011;71068;47.662;-2.750;2023-12-07T03:34:01;6.07;;;2.63;;
81201;SDS011;71068;47.662;-2.750;2023-12-07T03:36:28;5.80;;;2.67;;
81201;SDS011;71068;47.662;-2.750;2023-12-07T03:38:57;3.90;;;1.98;;
81201;SDS011;71068;47.662;-2.750;2023-12-07T03:41:26;6.93;;;3.03;;
81201;SDS011;71068;47.662;-2.750;2023-12-07T03:43:56;3.80;;;2.55;;
81201;SDS011;71068;47.662;-2.750;2023-12-07T03:46:26;4.65;;;2.38;;
81201;SDS011;71068;47.662;-2.750;2023-12-07T03:48:57;8.52;;;2.47;;
81201;SDS011;71068;47.662;-2.750;2023-12-07T03:51:26;3.78;;;2.22;;
81201;SDS011;71068;47.662;-2.750;2023-12-07T03:53:59;3.13;;;2.28;;
81201;SDS011;71068;47.662;-2.750;2023-12-07T03:59:03;1.33;;;1.17;;
81201;SDS011;71068;47.662;-2.750;2023-12-07T04:01:32;6.80;;;4.13;;
81201;SDS011;71068;47.662;-2.750;2023-12-07T04:03:58;3.80;;;1.92;;
81201;SDS011;71068;47.662;-2.750;2023-12-07T04:06:25;2.53;;;1.70;;
81201;SDS011;71068;47.662;-2.750;2023-12-07T04:08:53;4.32;;;2.30;;
81201;SDS011;71068;47.662;-2.750;2023-12-07T04:14:00;5.57;;;2.50;;
81201;SDS011;71068;47.662;-2.750;2023-12-07T04:16:34;6.20;;;1.90;;
81201;SDS011;71068;47.662;-2.750;2023-12-07T04:19:03;14.25;;;3.00;;
81201;SDS011;71068;47.662;-2.750;2023-12-07T04:21:30;4.55;;;2.47;;
81201;SDS011;71068;47.662;-2.750;2023-12-07T04:23:57;6.50;;;2.08;;
81201;SDS011;71068;47.662;-2.750;2023-12-07T04:26:25;3.55;;;1.95;;
81201;SDS011;71068;47.662;-2.750;2023-12-07T04:28:58;6.60;;;2.05;;
81201;SDS011;71068;47.662;-2.750;2023-12-07T04:31:30;4.63;;;1.45;;
81201;SDS011;71068;47.662;-2.750;2023-12-07T04:33:57;2.42;;;1.85;;
81201;SDS011;71068;47.662;-2.750;2023-12-07T04:36:24;5.75;;;2.40;;
81201;SDS011;71068;47.662;-2.750;2023-12-07T04:38:50;10.43;;;2.05;;
81201;SDS011;71068;47.662;-2.750;2023-12-07T04:41:16;2.10;;;1.52;;
81201;SDS011;71068;47.662;-2.750;2023-12-07T04:46:13;7.60;;;2.75;;
81201;SDS011;71068;47.662;-2.750;2023-12-07T04:48:49;8.07;;;2.65;;
81201;SDS011;71068;47.662;-2.750;2023-12-07T04:51:22;1.92;;;1.75;;
81201;SDS011;71068;47.662;-2.750;2023-12-07T04:53:51;4.45;;;2.20;;
81201;SDS011;71068;47.662;-2.750;2023-12-07T04:56:17;11.20;;;2.85;;
81201;SDS011;71068;47.662;-2.750;2023-12-07T04:58:46;4.72;;;2.53;;
81201;SDS011;71068;47.662;-2.750;2023-12-07T05:01:16;5.72;;;2.33;;
81201;SDS011;71068;47.662;-2.750;2023-12-07T05:03:44;1.95;;;1.48;;
81201;SDS011;71068;47.662;-2.750;2023-12-07T05:06:12;3.97;;;2.60;;
81201;SDS011;71068;47.662;-2.750;2023-12-07T05:08:40;3.17;;;1.75;;
81201;SDS011;71068;47.662;-2.750;2023-12-07T05:11:08;3.95;;;1.30;;
81201;SDS011;71068;47.662;-2.750;2023-12-07T05:13:41;6.75;;;1.73;;
81201;SDS011;71068;47.662;-2.750;2023-12-07T05:16:14;6.55;;;1.70;;
81201;SDS011;71068;47.662;-2.750;2023-12-07T05:22:31;2.95;;;1.67;;
81201;SDS011;71068;47.662;-2.750;2023-12-07T05:24:57;7.88;;;2.30;;
81201;SDS011;71068;47.662;-2.750;2023-12-07T05:27:30;8.50;;;3.13;;
81201;SDS011;71068;47.662;-2.750;2023-12-07T05:37:37;4.65;;;1.70;;
81201;SDS011;71068;47.662;-2.750;2023-12-07T05:40:07;3.03;;;1.27;;
81201;SDS011;71068;47.662;-2.750;2023-12-07T05:45:43;5.00;;;1.80;;
81201;SDS011;71068;47.662;-2.750;2023-12-07T05:51:11;2.10;;;1.58;;
81201;SDS011;71068;47.662;-2.750;2023-12-07T05:53:51;4.40;;;1.58;;
81201;SDS011;71068;47.662;-2.750;2023-12-07T05:56:20;4.88;;;1.63;;
81201;SDS011;71068;47.662;-2.750;2023-12-07T05:58:49;8.30;;;2.88;;
81201;SDS011;71068;47.662;-2.750;2023-12-07T06:01:19;6.25;;;2.88;;
81201;SDS011;71068;47.662;-2.750;2023-12-07T06:03:46;2.45;;;1.95;;
81201;SDS011;71068;47.662;-2.750;2023-12-07T06:06:12;4.63;;;2.08;;
81201;SDS011;71068;47.662;-2.750;2023-12-07T06:08:40;2.53;;;1.67;;
81201;SDS011;71068;47.662;-2.750;2023-12-07T06:11:09;4.30;;;1.92;;
81201;SDS011;71068;47.662;-2.750;2023-12-07T06:13:41;6.43;;;2.17;;
81201;SDS011;71068;47.662;-2.750;2023-12-07T06:16:10;2.92;;;1.67;;
81201;SDS011;71068;47.662;-2.750;2023-12-07T06:18:43;1.35;;;1.25;;
81201;SDS011;71068;47.662;-2.750;2023-12-07T06:21:09;1.42;;;1.27;;
81201;SDS011;71068;47.662;-2.750;2023-12-07T06:23:36;2.13;;;1.52;;
81201;SDS011;71068;47.662;-2.750;2023-12-07T06:26:02;1.35;;;1.25;;
81201;SDS011;71068;47.662;-2.750;2023-12-07T06:28:30;1.85;;;1.48;;
81201;SDS011;71068;47.662;-2.750;2023-12-07T06:30:57;1.38;;;1.25;;
81201;SDS011;71068;47.662;-2.750;2023-12-07T06:33:29;1.65;;;1.35;;
81201;SDS011;71068;47.662;-2.750;2023-12-07T06:36:05;5.10;;;1.50;;
81201;SDS011;71068;47.662;-2.750;2023-12-07T06:38:35;1.65;;;1.55;;
81201;SDS011;71068;47.662;-2.750;2023-12-07T06:41:12;6.88;;;1.27;;
81201;SDS011;71068;47.662;-2.750;2023-12-07T06:43:39;9.07;;;1.67;;
81201;SDS011;71068;47.662;-2.750;2023-12-07T06:46:13;3.15;;;2.05;;
81201;SDS011;71068;47.662;-2.750;2023-12-07T06:48:40;1.35;;;1.25;;
81201;SDS011;71068;47.662;-2.750;2023-12-07T06:51:14;1.42;;;1.08;;
81201;SDS011;71068;47.662;-2.750;2023-12-07T06:53:42;1.15;;;1.05;;
81201;SDS011;71068;47.662;-2.750;2023-12-07T06:56:09;1.73;;;1.50;;
81201;SDS011;71068;47.662;-2.750;2023-12-07T06:58:35;7.75;;;2.22;;
81201;SDS011;71068;47.662;-2.750;2023-12-07T07:01:05;3.45;;;1.30;;
81201;SDS011;71068;47.662;-2.750;2023-12-07T07:03:32;2.35;;;1.50;;
81201;SDS011;71068;47.662;-2.750;2023-12-07T07:05:58;4.32;;;1.83;;
81201;SDS011;71068;47.662;-2.750;2023-12-07T07:10:58;1.55;;;1.05;;
81201;SDS011;71068;47.662;-2.750;2023-12-07T07:13:34;3.45;;;1.63;;
81201;SDS011;71068;47.662;-2.750;2023-12-07T07:16:01;3.10;;;2.45;;
81201;SDS011;71068;47.662;-2.750;2023-12-07T07:18:38;4.93;;;2.38;;
81201;SDS011;71068;47.662;-2.750;2023-12-07T07:21:13;3.10;;;1.73;;
81201;SDS011;71068;47.662;-2.750;2023-12-07T07:23:46;4.32;;;1.77;;
81201;SDS011;71068;47.662;-2.750;2023-12-07T07:26:17;1.65;;;1.38;;
81201;SDS011;71068;47.662;-2.750;2023-12-07T07:28:44;2.22;;;1.85;;
81201;SDS011;71068;47.662;-2.750;2023-12-07T07:31:16;12.20;;;2.25;;
81201;SDS011;71068;47.662;-2.750;2023-12-07T07:33:52;2.03;;;1.38;;
81201;SDS011;71068;47.662;-2.750;2023-12-07T07:36:24;2.85;;;1.70;;
81201;SDS011;71068;47.662;-2.750;2023-12-07T07:38:51;5.22;;;1.85;;
81201;SDS011;71068;47.662;-2.750;2023-12-07T07:44:17;2.47;;;2.28;;
81201;SDS011;71068;47.662;-2.750;2023-12-07T07:50:02;1.42;;;1.00;;
81201;SDS011;71068;47.662;-2.750;2023-12-07T07:52:52;6.65;;;1.95;;
81201;SDS011;71068;47.662;-2.750;2023-12-07T07:55:38;2.25;;;1.70;;
81201;SDS011;71068;47.662;-2.750;2023-12-07T07:58:20;2.40;;;1.88;;
81201;SDS011;71068;47.662;-2.750;2023-12-07T08:00:55;2.15;;;1.65;;
81201;SDS011;71068;47.662;-2.750;2023-12-07T08:06:55;4.10;;;2.10;;
81201;SDS011;71068;47.662;-2.750;2023-12-07T08:09:22;1.02;;;1.00;;
81201;SDS011;71068;47.662;-2.750;2023-12-07T08:11:58;3.28;;;1.77;;
81201;SDS011;71068;47.662;-2.750;2023-12-07T08:17:28;2.03;;;1.55;;
81201;SDS011;71068;47.662;-2.750;2023-12-07T08:19:55;1.70;;;1.30;;
81201;SDS011;71068;47.662;-2.750;2023-12-07T08:22:32;2.50;;;1.83;;
81201;SDS011;71068;47.662;-2.750;2023-12-07T08:25:02;2.70;;;2.15;;
81201;SDS011;71068;47.662;-2.750;2023-12-07T08:27:46;1.27;;;1.17;;
81201;SDS011;71068;47.662;-2.750;2023-12-07T08:30:32;3.38;;;1.75;;
81201;SDS011;71068;47.662;-2.750;2023-12-07T08:46:18;2.20;;;1.60;;
81201;SDS011;71068;47.662;-2.750;2023-12-07T09:13:49;4.88;;;1.55;;
81201;SDS011;71068;47.662;-2.750;2023-12-07T09:16:25;2.70;;;1.60;;
81201;SDS011;71068;47.662;-2.750;2023-12-07T09:18:55;3.35;;;1.77;;
81201;SDS011;71068;47.662;-2.750;2023-12-07T09:24:12;4.40;;;2.47;;
81201;SDS011;71068;47.662;-2.750;2023-12-07T09:26:47;2.65;;;1.95;;
81201;SDS011;71068;47.662;-2.750;2023-12-07T09:29:27;7.60;;;2.55;;
81201;SDS011;71068;47.662;-2.750;2023-12-07T09:31:56;3.08;;;2.00;;
81201;SDS011;71068;47.662;-2.750;2023-12-07T09:34:22;3.25;;;1.60;;
81201;SDS011;71068;47.662;-2.750;2023-12-07T09:37:04;5.63;;;2.38;;
81201;SDS011;71068;47.662;-2.750;2023-12-07T09:39:34;5.93;;;3.13;;
81201;SDS011;71068;47.662;-2.750;2023-12-07T09:42:04;2.92;;;2.03;;
81201;SDS011;71068;47.662;-2.750;2023-12-07T09:44:30;2.90;;;1.63;;
81201;SDS011;71068;47.662;-2.750;2023-12-07T09:46:59;3.15;;;1.83;;
81201;SDS011;71068;47.662;-2.750;2023-12-07T09:52:02;2.03;;;1.50;;
81201;SDS011;71068;47.662;-2.750;2023-12-07T09:59:46;7.28;;;2.40;;
81201;SDS011;71068;47.662;-2.750;2023-12-07T10:02:13;3.03;;;1.83;;
81201;SDS011;71068;47.662;-2.750;2023-12-07T10:04:42;2.88;;;2.10;;
81201;SDS011;71068;47.662;-2.750;2023-12-07T10:07:08;3.47;;;2.63;;
81201;SDS011;71068;47.662;-2.750;2023-12-07T10:09:38;1.80;;;1.15;;
81201;SDS011;71068;47.662;-2.750;2023-12-07T10:12:07;1.80;;;1.55;;
81201;SDS011;71068;47.662;-2.750;2023-12-07T10:14:39;2.58;;;1.58;;
81201;SDS011;71068;47.662;-2.750;2023-12-07T10:17:19;3.10;;;2.20;;
81201;SDS011;71068;47.662;-2.750;2023-12-07T10:22:38;4.85;;;2.35;;
81201;SDS011;71068;47.662;-2.750;2023-12-07T10:25:09;2.78;;;2.42;;
81201;SDS011;71068;47.662;-2.750;2023-12-07T10:27:53;3.05;;;2.58;;
81201;SDS011;71068;47.662;-2.750;2023-12-07T10:30:23;5.63;;;2.70;;
81201;SDS011;71068;47.662;-2.750;2023-12-07T10:32:57;8.02;;;2.25;;
81201;SDS011;71068;47.662;-2.750;2023-12-07T10:35:23;1.75;;;1.60;;
81201;SDS011;71068;47.662;-2.750;2023-12-07T10:37:49;5.00;;;2.42;;
81201;SDS011;71068;47.662;-2.750;2023-12-07T10:40:24;5.60;;;2.63;;
81201;SDS011;71068;47.662;-2.750;2023-12-07T10:42:53;8.85;;;3.13;;
81201;SDS011;71068;47.662;-2.750;2023-12-07T10:45:26;6.43;;;2.53;;
81201;SDS011;71068;47.662;-2.750;2023-12-07T10:48:07;4.43;;;2.58;;
81201;SDS011;71068;47.662;-2.750;2023-12-07T10:50:38;3.72;;;2.30;;
81201;SDS011;71068;47.662;-2.750;2023-12-07T10:53:33;7.20;;;3.13;;
81201;SDS011;71068;47.662;-2.750;2023-12-07T10:56:13;3.92;;;1.65;;
81201;SDS011;71068;47.662;-2.750;2023-12-07T10:58:52;5.18;;;3.15;;
81201;SDS011;71068;47.662;-2.750;2023-12-07T11:01:21;3.90;;;2.15;;
81201;SDS011;71068;47.662;-2.750;2023-12-07T11:03:51;8.57;;;3.53;;
81201;SDS011;71068;47.662;-2.750;2023-12-07T11:08:54;11.15;;;2.28;;
81201;SDS011;71068;47.662;-2.750;2023-12-07T11:14:08;2.85;;;1.92;;
81201;SDS011;71068;47.662;-2.750;2023-12-07T11:16:48;2.70;;;1.58;;
81201;SDS011;71068;47.662;-2.750;2023-12-07T11:22:07;7.32;;;3.17;;
81201;SDS011;71068;47.662;-2.750;2023-12-07T11:27:48;14.32;;;2.50;;
81201;SDS011;71068;47.662;-2.750;2023-12-07T11:30:27;8.40;;;2.45;;
81201;SDS011;71068;47.662;-2.750;2023-12-07T11:33:05;4.20;;;1.65;;
81201;SDS011;71068;47.662;-2.750;2023-12-07T11:35:33;5.40;;;2.22;;
81201;SDS011;71068;47.662;-2.750;2023-12-07T11:38:01;7.22;;;2.63;;
81201;SDS011;71068;47.662;-2.750;2023-12-07T11:40:41;2.85;;;2.03;;
81201;SDS011;71068;47.662;-2.750;2023-12-07T11:43:17;2.30;;;1.88;;
81201;SDS011;71068;47.662;-2.750;2023-12-07T11:46:09;3.75;;;2.53;;
81201;SDS011;71068;47.662;-2.750;2023-12-07T11:48:35;5.43;;;2.63;;
81201;SDS011;71068;47.662;-2.750;2023-12-07T11:53:38;2.35;;;1.42;;
81201;SDS011;71068;47.662;-2.750;2023-12-07T11:56:06;2.72;;;1.90;;
81201;SDS011;71068;47.662;-2.750;2023-12-07T11:58:38;2.08;;;1.70;;
81201;SDS011;71068;47.662;-2.750;2023-12-07T12:01:06;2.42;;;1.77;;
81201;SDS011;71068;47.662;-2.750;2023-12-07T12:03:32;6.85;;;1.77;;
81201;SDS011;71068;47.662;-2.750;2023-12-07T12:05:59;6.35;;;1.50;;
81201;SDS011;71068;47.662;-2.750;2023-12-07T12:08:29;2.22;;;1.48;;
81201;SDS011;71068;47.662;-2.750;2023-12-07T12:10:57;3.20;;;1.92;;
81201;SDS011;71068;47.662;-2.750;2023-12-07T12:13:33;6.57;;;3.05;;
81201;SDS011;71068;47.662;-2.750;2023-12-07T12:16:05;8.80;;;3.50;;
81201;SDS011;71068;47.662;-2.750;2023-12-07T12:18:33;4.55;;;2.17;;
81201;SDS011;71068;47.662;-2.750;2023-12-07T12:21:02;4.68;;;2.40;;
81201;SDS011;71068;47.662;-2.750;2023-12-07T12:23:29;4.18;;;2.50;;
81201;SDS011;71068;47.662;-2.750;2023-12-07T12:25:59;4.40;;;2.78;;
81201;SDS011;71068;47.662;-2.750;2023-12-07T12:28:28;6.63;;;2.97;;
81201;SDS011;71068;47.662;-2.750;2023-12-07T12:30:57;4.10;;;1.83;;
81201;SDS011;71068;47.662;-2.750;2023-12-07T12:33:27;8.05;;;2.95;;
81201;SDS011;71068;47.662;-2.750;2023-12-07T12:36:01;3.53;;;2.47;;
81201;SDS011;71068;47.662;-2.750;2023-12-07T12:38:30;3.38;;;2.22;;
81201;SDS011;71068;47.662;-2.750;2023-12-07T12:41:00;2.90;;;1.55;;
81201;SDS011;71068;47.662;-2.750;2023-12-07T12:43:27;1.73;;;1.20;;
81201;SDS011;71068;47.662;-2.750;2023-12-07T12:45:56;3.75;;;1.80;;
81201;SDS011;71068;47.662;-2.750;2023-12-07T12:48:26;3.47;;;1.67;;
81201;SDS011;71068;47.662;-2.750;2023-12-07T12:50:53;4.85;;;1.27;;
81201;SDS011;71068;47.662;-2.750;2023-12-07T12:53:21;2.47;;;1.77;;
81201;SDS011;71068;47.662;-2.750;2023-12-07T12:55:54;2.40;;;1.88;;
81201;SDS011;71068;47.662;-2.750;2023-12-07T12:58:23;2.75;;;1.38;;
81201;SDS011;71068;47.662;-2.750;2023-12-07T13:00:49;3.95;;;2.78;;
81201;SDS011;71068;47.662;-2.750;2023-12-07T13:03:15;4.28;;;2.20;;
81201;SDS011;71068;47.662;-2.750;2023-12-07T13:05:42;3.90;;;2.05;;
81201;SDS011;71068;47.662;-2.750;2023-12-07T13:08:11;3.17;;;1.75;;
81201;SDS011;71068;47.662;-2.750;2023-12-07T13:10:37;3.10;;;2.20;;
81201;SDS011;71068;47.662;-2.750;2023-12-07T13:13:06;2.45;;;1.63;;
81201;SDS011;71068;47.662;-2.750;2023-12-07T13:15:41;3.35;;;1.58;;
81201;SDS011;71068;47.662;-2.750;2023-12-07T13:20:43;3.55;;;1.15;;
81201;SDS011;71068;47.662;-2.750;2023-12-07T13:23:09;2.83;;;2.25;;
81201;SDS011;71068;47.662;-2.750;2023-12-07T13:25:37;3.10;;;1.85;;
81201;SDS011;71068;47.662;-2.750;2023-12-07T13:28:12;2.72;;;1.65;;
81201;SDS011;71068;47.662;-2.750;2023-12-07T13:30:40;1.58;;;1.38;;
81201;SDS011;71068;47.662;-2.750;2023-12-07T13:33:07;2.42;;;1.55;;
81201;SDS011;71068;47.662;-2.750;2023-12-07T13:35:35;1.42;;;1.33;;
81201;SDS011;71068;47.662;-2.750;2023-12-07T13:38:07;1.42;;;1.25;;
81201;SDS011;71068;47.662;-2.750;2023-12-07T13:40:36;2.35;;;1.15;;
81201;SDS011;71068;47.662;-2.750;2023-12-07T13:43:03;4.38;;;1.48;;
81201;SDS011;71068;47.662;-2.750;2023-12-07T13:45:39;9.25;;;2.08;;
81201;SDS011;71068;47.662;-2.750;2023-12-07T13:50:41;2.90;;;1.48;;
81201;SDS011;71068;47.662;-2.750;2023-12-07T13:53:08;1.33;;;1.10;;
81201;SDS011;71068;47.662;-2.750;2023-12-07T13:55:40;1.02;;;1.02;;
81201;SDS011;71068;47.662;-2.750;2023-12-07T13:58:08;1.17;;;1.02;;
81201;SDS011;71068;47.662;-2.750;2023-12-07T14:00:37;1.05;;;1.05;;
81201;SDS011;71068;47.662;-2.750;2023-12-07T14:03:03;3.17;;;1.58;;
81201;SDS011;71068;47.662;-2.750;2023-12-07T14:05:29;1.65;;;0.98;;
81201;SDS011;71068;47.662;-2.750;2023-12-07T14:07:58;2.15;;;1.48;;
81201;SDS011;71068;47.662;-2.750;2023-12-07T14:10:24;2.33;;;1.52;;
81201;SDS011;71068;47.662;-2.750;2023-12-07T14:12:59;1.63;;;1.40;;
81201;SDS011;71068;47.662;-2.750;2023-12-07T14:15:26;1.10;;;0.70;;
81201;SDS011;71068;47.662;-2.750;2023-12-07T14:18:01;5.03;;;2.10;;
81201;SDS011;71068;47.662;-2.750;2023-12-07T14:20:28;2.03;;;1.45;;
81201;SDS011;71068;47.662;-2.750;2023-12-07T14:22:56;2.97;;;1.33;;
81201;SDS011;71068;47.662;-2.750;2023-12-07T14:27:51;1.17;;;1.00;;
81201;SDS011;71068;47.662;-2.750;2023-12-07T14:30:17;2.17;;;1.60;;
81201;SDS011;71068;47.662;-2.750;2023-12-07T14:32:44;2.42;;;1.92;;
81201;SDS011;71068;47.662;-2.750;2023-12-07T14:35:19;2.50;;;1.83;;
81201;SDS011;71068;47.662;-2.750;2023-12-07T14:37:46;1.30;;;1.20;;
81201;SDS011;71068;47.662;-2.750;2023-12-07T14:40:16;3.28;;;1.80;;
81201;SDS011;71068;47.662;-2.750;2023-12-07T14:42:45;3.53;;;2.05;;
81201;SDS011;71068;47.662;-2.750;2023-12-07T14:45:25;1.55;;;1.42;;
81201;SDS011;71068;47.662;-2.750;2023-12-07T14:47:54;1.52;;;1.17;;
81201;SDS011;71068;47.662;-2.750;2023-12-07T14:50:20;2.60;;;1.48;;
81201;SDS011;71068;47.662;-2.750;2023-12-07T14:52:46;1.80;;;1.52;;
81201;SDS011;71068;47.662;-2.750;2023-12-07T14:55:13;1.20;;;1.10;;
81201;SDS011;71068;47.662;-2.750;2023-12-07T14:57:40;7.03;;;2.15;;
81201;SDS011;71068;47.662;-2.750;2023-12-07T15:00:13;3.20;;;1.83;;
81201;SDS011;71068;47.662;-2.750;2023-12-07T15:02:49;2.47;;;1.30;;
81201;SDS011;71068;47.662;-2.750;2023-12-07T15:05:22;1.40;;;1.25;;
81201;SDS011;71068;47.662;-2.750;2023-12-07T15:10:23;1.60;;;1.42;;
81201;SDS011;71068;47.662;-2.750;2023-12-07T15:12:52;1.10;;;1.00;;
81201;SDS011;71068;47.662;-2.750;2023-12-07T15:15:19;0.80;;;0.80;;
81201;SDS011;71068;47.662;-2.750;2023-12-07T15:17:46;2.03;;;1.10;;
81201;SDS011;71068;47.662;-2.750;2023-12-07T15:20:12;1.13;;;0.93;;
81201;SDS011;71068;47.662;-2.750;2023-12-07T15:25:09;2.00;;;1.27;;
81201;SDS011;71068;47.662;-2.750;2023-12-07T15:27:35;1.33;;;1.23;;
81201;SDS011;71068;47.662;-2.750;2023-12-07T15:30:01;1.80;;;1.40;;
81201;SDS011;71068;47.662;-2.750;2023-12-07T15:32:38;3.85;;;2.75;;
81201;SDS011;71068;47.662;-2.750;2023-12-07T15:35:04;7.25;;;1.90;;
81201;SDS011;71068;47.662;-2.750;2023-12-07T15:37:31;2.33;;;1.52;;
81201;SDS011;71068;47.662;-2.750;2023-12-07T15:39:57;3.75;;;2.28;;
81201;SDS011;71068;47.662;-2.750;2023-12-07T15:42:23;1.85;;;1.33;;
81201;SDS011;71068;47.662;-2.750;2023-12-07T15:44:49;0.93;;;0.93;;
81201;SDS011;71068;47.662;-2.750;2023-12-07T15:47:16;32.95;;;9.65;;
81201;SDS011;71068;47.662;-2.750;2023-12-07T15:49:49;2.72;;;1.58;;
81201;SDS011;71068;47.662;-2.750;2023-12-07T15:52:15;4.32;;;3.60;;
81201;SDS011;71068;47.662;-2.750;2023-12-07T15:54:41;5.05;;;2.38;;
81201;SDS011;71068;47.662;-2.750;2023-12-07T15:57:10;6.50;;;2.65;;
81201;SDS011;71068;47.662;-2.750;2023-12-07T15:59:36;7.47;;;2.80;;
81201;SDS011;71068;47.662;-2.750;2023-12-07T16:02:03;19.50;;;8.02;;
81201;SDS011;71068;47.662;-2.750;2023-12-07T16:04:31;9.35;;;3.92;;
81201;SDS011;71068;47.662;-2.750;2023-12-07T16:06:58;11.52;;;3.97;;
81201;SDS011;71068;47.662;-2.750;2023-12-07T16:09:33;7.00;;;2.40;;
81201;SDS011;71068;47.662;-2.750;2023-12-07T16:12:00;5.30;;;2.33;;
81201;SDS011;71068;47.662;-2.750;2023-12-07T16:14:27;7.13;;;3.38;;
81201;SDS011;71068;47.662;-2.750;2023-12-07T16:17:14;26.30;;;3.45;;
81201;SDS011;71068;47.662;-2.750;2023-12-07T16:19:43;11.18;;;2.38;;
81201;SDS011;71068;47.662;-2.750;2023-12-07T16:22:25;19.45;;;3.50;;
81201;SDS011;71068;47.662;-2.750;2023-12-07T16:24:51;19.17;;;3.50;;
81201;SDS011;71068;47.662;-2.750;2023-12-07T16:27:28;12.88;;;2.75;;
81201;SDS011;71068;47.662;-2.750;2023-12-07T16:30:00;16.65;;;2.70;;
81201;SDS011;71068;47.662;-2.750;2023-12-07T16:32:36;27.20;;;3.55;;
81201;SDS011;71068;47.662;-2.750;2023-12-07T16:37:50;19.48;;;4.07;;
81201;SDS011;71068;47.662;-2.750;2023-12-07T16:40:27;34.90;;;3.67;;
81201;SDS011;71068;47.662;-2.750;2023-12-07T16:42:56;10.55;;;4.07;;
81201;SDS011;71068;47.662;-2.750;2023-12-07T16:45:23;23.55;;;3.03;;
81201;SDS011;71068;47.662;-2.750;2023-12-07T16:47:49;15.50;;;3.15;;
81201;SDS011;71068;47.662;-2.750;2023-12-07T16:50:34;22.42;;;4.95;;
81201;SDS011;71068;47.662;-2.750;2023-12-07T16:53:03;14.80;;;3.05;;
81201;SDS011;71068;47.662;-2.750;2023-12-07T16:55:30;29.58;;;4.47;;
81201;SDS011;71068;47.662;-2.750;2023-12-07T16:57:59;15.52;;;3.33;;
81201;SDS011;71068;47.662;-2.750;2023-12-07T17:00:28;16.98;;;3.72;;
81201;SDS011;71068;47.662;-2.750;2023-12-07T17:02:54;22.98;;;4.63;;
81201;SDS011;71068;47.662;-2.750;2023-12-07T17:05:20;17.08;;;3.67;;
81201;SDS011;71068;47.662;-2.750;2023-12-07T17:07:46;17.52;;;3.47;;
81201;SDS011;71068;47.662;-2.750;2023-12-07T17:10:12;29.42;;;4.70;;
81201;SDS011;71068;47.662;-2.750;2023-12-07T17:12:40;11.93;;;4.03;;
81201;SDS011;71068;47.662;-2.750;2023-12-07T17:15:07;18.55;;;3.22;;
81201;SDS011;71068;47.662;-2.750;2023-12-07T17:17:36;12.45;;;2.78;;
81201;SDS011;71068;47.662;-2.750;2023-12-07T17:20:06;14.82;;;3.42;;
81201;SDS011;71068;47.662;-2.750;2023-12-07T17:22:37;32.10;;;3.88;;
81201;SDS011;71068;47.662;-2.750;2023-12-07T17:25:06;35.63;;;4.75;;
81201;SDS011;71068;47.662;-2.750;2023-12-07T17:27:34;18.35;;;3.45;;
81201;SDS011;71068;47.662;-2.750;2023-12-07T17:30:06;21.88;;;3.85;;
81201;SDS011;71068;47.662;-2.750;2023-12-07T17:32:32;29.90;;;4.57;;
81201;SDS011;71068;47.662;-2.750;2023-12-07T17:35:02;39.17;;;4.82;;
81201;SDS011;71068;47.662;-2.750;2023-12-07T17:37:28;32.58;;;4.78;;
81201;SDS011;71068;47.662;-2.750;2023-12-07T17:40:06;16.63;;;3.42;;
81201;SDS011;71068;47.662;-2.750;2023-12-07T17:42:36;34.33;;;4.85;;
81201;SDS011;71068;47.662;-2.750;2023-12-07T17:45:05;32.58;;;4.40;;
81201;SDS011;71068;47.662;-2.750;2023-12-07T17:47:36;18.25;;;3.97;;
81201;SDS011;71068;47.662;-2.750;2023-12-07T17:50:06;24.08;;;4.40;;
81201;SDS011;71068;47.662;-2.750;2023-12-07T17:52:40;27.75;;;4.90;;
81201;SDS011;71068;47.662;-2.750;2023-12-07T17:55:14;22.65;;;3.92;;
81201;SDS011;71068;47.662;-2.750;2023-12-07T17:57:43;29.52;;;4.57;;
81201;SDS011;71068;47.662;-2.750;2023-12-07T18:00:09;28.15;;;5.20;;
81201;SDS011;71068;47.662;-2.750;2023-12-07T18:05:15;29.95;;;5.55;;
81201;SDS011;71068;47.662;-2.750;2023-12-07T18:07:52;22.42;;;4.65;;